<?xml version="1.0" encoding="UTF-8" standalone="no" ?>
<gpx xmlns="http://www.topografix.com/GPX/1/1" xmlns:xsi="http://www.w3.org/2001/XMLSchema-instance" xsi:schemaLocation="http://www.topografix.com/GPX/1/1 http://www.topografix.com/GPX/1/1/gpx.xsd" version="1.1" creator="VisuGPX - https://www.visugpx.com">
  <metadata>
    <name>St Félix de Montceau</name>
    <desc><![CDATA[
<p>Heure de départ: 14:04 24 janv. 2022<br/>Heure d'arrivée: 16:32 24 janv. 2022<br/>Distance: 7,7 km (02:27)<br/>Temps déplacement: 01:54<br/>Vitesse moyenne: 3,12 km/h<br/>Vitesse moyenne mouv.: 4,04 km/h<br/>Vitesse Max.: 5,47 km/h<br/>Altitude minimale: 116 m<br/>Altitude maximale: 221 m<br/>Vitesse de montée: 407 m/h<br/>Vitesse de descente: 217,2 m/h<br/>Gain d'altitude: 171 m<br/>Perte d'altitude: 190 m<br/>Temps de montée: 00:25<br/>Temps de descente: 00:52<br/></p><hr align="center" width="480" style="height: 2px; width: 517px"/>]]></desc>
  </metadata>
  <wpt lat="43.48762" lon="3.72746">
    <ele>173.78</ele>
    <name><![CDATA[]]></name>
    <type><![CDATA[Point de départ]]></type>
  </wpt>
  <wpt lat="43.48678" lon="3.72604">
    <ele>154.64</ele>
    <name><![CDATA[]]></name>
    <desc><![CDATA[<p><br /><h3>Nom: Segment: 1</h3><br />Heure de départ: 14:04 24 janv. 2022<br/>Heure d'arrivée: 16:32 24 janv. 2022<br/>Distance: 7,7km (02:27)<br/>Temps déplacement: 01:54<br/>Vitesse moyenne: 3,12 km/h<br/>Vitesse moyenne mouv.: 4,04 km/h<br/>Vitesse Max.: 5,47 km/h<br/>Altitude minimale: 116 m<br/>Altitude maximale: 221 m<br/>Vitesse de montée: 407 m/h<br/>Vitesse de descente: 217,2 m/h<br/>Gain d'altitude: 171 m<br/>Perte d'altitude: 190 m<br/>Temps de montée: 00:25<br/>Temps de descente: 00:52<br/></p>]]></desc>
    <type><![CDATA[Point d'arrivée]]></type>
  </wpt>
  <trk>
    <name><![CDATA[2022-01-24 14:04:49]]></name>
    <desc><![CDATA[<p>Heure de départ: 14:04 24 janv. 2022<br/>Heure d'arrivée: 16:32 24 janv. 2022<br/>Distance: 7,7 km (02:27)<br/>Temps déplacement: 01:54<br/>Vitesse moyenne: 3,12 km/h<br/>Vitesse moyenne mouv.: 4,04 km/h<br/>Vitesse Max.: 5,47 km/h<br/>Altitude minimale: 116 m<br/>Altitude maximale: 221 m<br/>Vitesse de montée: 407 m/h<br/>Vitesse de descente: 217,2 m/h<br/>Gain d'altitude: 171 m<br/>Perte d'altitude: 190 m<br/>Temps de montée: 00:25<br/>Temps de descente: 00:52<br/></p><hr align="center" width="480" style="height: 2px; width: 517px"/>]]></desc>
    <trkseg>
      <trkpt lat="43.48762" lon="3.72746">
        <ele>173.78</ele>
        <time>2022-01-24T13:04:50.468Z</time>
      </trkpt>
      <trkpt lat="43.48766" lon="3.72771">
        <ele>154.48</ele>
        <time>2022-01-24T13:05:06.000Z</time>
      </trkpt>
      <trkpt lat="43.48761" lon="3.72795">
        <ele>155.04</ele>
        <time>2022-01-24T13:05:23.000Z</time>
      </trkpt>
      <trkpt lat="43.4875" lon="3.72816">
        <ele>154.95</ele>
        <time>2022-01-24T13:05:40.000Z</time>
      </trkpt>
      <trkpt lat="43.48739" lon="3.72836">
        <ele>152.63</ele>
        <time>2022-01-24T13:06:03.000Z</time>
      </trkpt>
      <trkpt lat="43.48738" lon="3.72861">
        <ele>154.49</ele>
        <time>2022-01-24T13:06:19.000Z</time>
      </trkpt>
      <trkpt lat="43.48754" lon="3.72875">
        <ele>155.83</ele>
        <time>2022-01-24T13:06:39.000Z</time>
      </trkpt>
      <trkpt lat="43.48772" lon="3.72883">
        <ele>159.31</ele>
        <time>2022-01-24T13:06:58.000Z</time>
      </trkpt>
      <trkpt lat="43.48789" lon="3.7289">
        <ele>160.24</ele>
        <time>2022-01-24T13:07:50.000Z</time>
      </trkpt>
      <trkpt lat="43.48802" lon="3.72911">
        <ele>160.28</ele>
        <time>2022-01-24T13:08:11.000Z</time>
      </trkpt>
      <trkpt lat="43.48806" lon="3.72935">
        <ele>161.94</ele>
        <time>2022-01-24T13:08:29.000Z</time>
      </trkpt>
      <trkpt lat="43.4881" lon="3.7296">
        <ele>164.87</ele>
        <time>2022-01-24T13:08:46.000Z</time>
      </trkpt>
      <trkpt lat="43.48813" lon="3.72986">
        <ele>166.71</ele>
        <time>2022-01-24T13:09:03.000Z</time>
      </trkpt>
      <trkpt lat="43.48815" lon="3.73011">
        <ele>168.63</ele>
        <time>2022-01-24T13:09:21.000Z</time>
      </trkpt>
      <trkpt lat="43.4882" lon="3.73035">
        <ele>170.7</ele>
        <time>2022-01-24T13:09:41.000Z</time>
      </trkpt>
      <trkpt lat="43.48839" lon="3.73037">
        <ele>171.41</ele>
        <time>2022-01-24T13:10:06.000Z</time>
      </trkpt>
      <trkpt lat="43.48856" lon="3.73027">
        <ele>172.65</ele>
        <time>2022-01-24T13:10:26.000Z</time>
      </trkpt>
      <trkpt lat="43.48875" lon="3.73023">
        <ele>174.84</ele>
        <time>2022-01-24T13:10:45.000Z</time>
      </trkpt>
      <trkpt lat="43.48894" lon="3.73023">
        <ele>177.53</ele>
        <time>2022-01-24T13:11:03.000Z</time>
      </trkpt>
      <trkpt lat="43.48911" lon="3.73033">
        <ele>179.2</ele>
        <time>2022-01-24T13:11:23.000Z</time>
      </trkpt>
      <trkpt lat="43.48926" lon="3.73049">
        <ele>181.62</ele>
        <time>2022-01-24T13:11:43.000Z</time>
      </trkpt>
      <trkpt lat="43.48941" lon="3.73064">
        <ele>183.63</ele>
        <time>2022-01-24T13:12:03.000Z</time>
      </trkpt>
      <trkpt lat="43.48956" lon="3.7308">
        <ele>184.91</ele>
        <time>2022-01-24T13:12:23.000Z</time>
      </trkpt>
      <trkpt lat="43.48969" lon="3.73097">
        <ele>184.75</ele>
        <time>2022-01-24T13:12:44.000Z</time>
      </trkpt>
      <trkpt lat="43.48979" lon="3.73118">
        <ele>186.77</ele>
        <time>2022-01-24T13:13:41.000Z</time>
      </trkpt>
      <trkpt lat="43.48982" lon="3.73143">
        <ele>187.96</ele>
        <time>2022-01-24T13:14:00.000Z</time>
      </trkpt>
      <trkpt lat="43.48982" lon="3.73168">
        <ele>189.59</ele>
        <time>2022-01-24T13:14:19.000Z</time>
      </trkpt>
      <trkpt lat="43.48983" lon="3.73194">
        <ele>191.87</ele>
        <time>2022-01-24T13:14:38.000Z</time>
      </trkpt>
      <trkpt lat="43.4898" lon="3.73219">
        <ele>192.01</ele>
        <time>2022-01-24T13:14:54.000Z</time>
      </trkpt>
      <trkpt lat="43.48963" lon="3.73228">
        <ele>192.36</ele>
        <time>2022-01-24T13:15:12.000Z</time>
      </trkpt>
      <trkpt lat="43.48945" lon="3.73223">
        <ele>192.33</ele>
        <time>2022-01-24T13:15:30.000Z</time>
      </trkpt>
      <trkpt lat="43.48929" lon="3.73212">
        <ele>193.54</ele>
        <time>2022-01-24T13:15:46.000Z</time>
      </trkpt>
      <trkpt lat="43.48912" lon="3.73203">
        <ele>194.81</ele>
        <time>2022-01-24T13:16:04.000Z</time>
      </trkpt>
      <trkpt lat="43.48894" lon="3.73193">
        <ele>195.68</ele>
        <time>2022-01-24T13:16:25.000Z</time>
      </trkpt>
      <trkpt lat="43.48877" lon="3.73186">
        <ele>196.3</ele>
        <time>2022-01-24T13:16:42.000Z</time>
      </trkpt>
      <trkpt lat="43.48859" lon="3.7318">
        <ele>199.67</ele>
        <time>2022-01-24T13:17:00.000Z</time>
      </trkpt>
      <trkpt lat="43.48841" lon="3.73174">
        <ele>201.35</ele>
        <time>2022-01-24T13:17:18.000Z</time>
      </trkpt>
      <trkpt lat="43.48824" lon="3.73162">
        <ele>202.16</ele>
        <time>2022-01-24T13:17:37.000Z</time>
      </trkpt>
      <trkpt lat="43.48805" lon="3.73163">
        <ele>200.44</ele>
        <time>2022-01-24T13:17:54.000Z</time>
      </trkpt>
      <trkpt lat="43.48786" lon="3.7316">
        <ele>201.97</ele>
        <time>2022-01-24T13:18:12.000Z</time>
      </trkpt>
      <trkpt lat="43.48771" lon="3.73145">
        <ele>202.04</ele>
        <time>2022-01-24T13:18:28.000Z</time>
      </trkpt>
      <trkpt lat="43.48757" lon="3.73128">
        <ele>202.79</ele>
        <time>2022-01-24T13:18:44.000Z</time>
      </trkpt>
      <trkpt lat="43.48743" lon="3.73113">
        <ele>205</ele>
        <time>2022-01-24T13:19:01.000Z</time>
      </trkpt>
      <trkpt lat="43.48729" lon="3.73095">
        <ele>204.19</ele>
        <time>2022-01-24T13:19:28.000Z</time>
      </trkpt>
      <trkpt lat="43.48712" lon="3.73088">
        <ele>205.48</ele>
        <time>2022-01-24T13:19:46.000Z</time>
      </trkpt>
      <trkpt lat="43.48694" lon="3.7309">
        <ele>207</ele>
        <time>2022-01-24T13:20:02.000Z</time>
      </trkpt>
      <trkpt lat="43.48676" lon="3.73093">
        <ele>205.6</ele>
        <time>2022-01-24T13:20:18.000Z</time>
      </trkpt>
      <trkpt lat="43.48658" lon="3.73101">
        <ele>206.57</ele>
        <time>2022-01-24T13:20:34.000Z</time>
      </trkpt>
      <trkpt lat="43.48641" lon="3.73108">
        <ele>207.43</ele>
        <time>2022-01-24T13:20:50.000Z</time>
      </trkpt>
      <trkpt lat="43.48624" lon="3.73117">
        <ele>210.66</ele>
        <time>2022-01-24T13:21:05.000Z</time>
      </trkpt>
      <trkpt lat="43.48606" lon="3.73124">
        <ele>209.18</ele>
        <time>2022-01-24T13:21:21.000Z</time>
      </trkpt>
      <trkpt lat="43.48587" lon="3.7313">
        <ele>208.96</ele>
        <time>2022-01-24T13:21:38.000Z</time>
      </trkpt>
      <trkpt lat="43.4857" lon="3.73139">
        <ele>210.12</ele>
        <time>2022-01-24T13:21:54.000Z</time>
      </trkpt>
      <trkpt lat="43.48553" lon="3.73151">
        <ele>212.38</ele>
        <time>2022-01-24T13:22:10.000Z</time>
      </trkpt>
      <trkpt lat="43.48541" lon="3.7317">
        <ele>213.44</ele>
        <time>2022-01-24T13:22:28.000Z</time>
      </trkpt>
      <trkpt lat="43.48544" lon="3.73196">
        <ele>215.3</ele>
        <time>2022-01-24T13:22:47.000Z</time>
      </trkpt>
      <trkpt lat="43.48549" lon="3.73221">
        <ele>217.08</ele>
        <time>2022-01-24T13:23:04.000Z</time>
      </trkpt>
      <trkpt lat="43.48549" lon="3.73246">
        <ele>217.14</ele>
        <time>2022-01-24T13:23:20.000Z</time>
      </trkpt>
      <trkpt lat="43.48541" lon="3.7327">
        <ele>217.29</ele>
        <time>2022-01-24T13:23:36.000Z</time>
      </trkpt>
      <trkpt lat="43.48527" lon="3.73287">
        <ele>215.24</ele>
        <time>2022-01-24T13:23:52.000Z</time>
      </trkpt>
      <trkpt lat="43.4851" lon="3.73298">
        <ele>213.87</ele>
        <time>2022-01-24T13:24:09.000Z</time>
      </trkpt>
      <trkpt lat="43.48493" lon="3.73304">
        <ele>214.58</ele>
        <time>2022-01-24T13:24:25.000Z</time>
      </trkpt>
      <trkpt lat="43.48474" lon="3.73309">
        <ele>215.43</ele>
        <time>2022-01-24T13:24:42.000Z</time>
      </trkpt>
      <trkpt lat="43.48455" lon="3.73314">
        <ele>217.13</ele>
        <time>2022-01-24T13:24:59.000Z</time>
      </trkpt>
      <trkpt lat="43.48437" lon="3.73315">
        <ele>218.72</ele>
        <time>2022-01-24T13:25:16.000Z</time>
      </trkpt>
      <trkpt lat="43.4842" lon="3.73325">
        <ele>221.82</ele>
        <time>2022-01-24T13:25:34.000Z</time>
      </trkpt>
      <trkpt lat="43.48405" lon="3.73338">
        <ele>221.96</ele>
        <time>2022-01-24T13:25:52.000Z</time>
      </trkpt>
      <trkpt lat="43.4839" lon="3.73354">
        <ele>222.1</ele>
        <time>2022-01-24T13:26:10.000Z</time>
      </trkpt>
      <trkpt lat="43.48374" lon="3.73369">
        <ele>222.11</ele>
        <time>2022-01-24T13:26:27.000Z</time>
      </trkpt>
      <trkpt lat="43.48358" lon="3.7338">
        <ele>221.83</ele>
        <time>2022-01-24T13:26:43.000Z</time>
      </trkpt>
      <trkpt lat="43.48339" lon="3.73386">
        <ele>220.27</ele>
        <time>2022-01-24T13:26:59.000Z</time>
      </trkpt>
      <trkpt lat="43.48321" lon="3.73389">
        <ele>218.62</ele>
        <time>2022-01-24T13:27:16.000Z</time>
      </trkpt>
      <trkpt lat="43.48302" lon="3.7339">
        <ele>218.01</ele>
        <time>2022-01-24T13:27:32.000Z</time>
      </trkpt>
      <trkpt lat="43.48284" lon="3.73397">
        <ele>218.88</ele>
        <time>2022-01-24T13:27:48.000Z</time>
      </trkpt>
      <trkpt lat="43.48267" lon="3.73404">
        <ele>219.69</ele>
        <time>2022-01-24T13:28:03.000Z</time>
      </trkpt>
      <trkpt lat="43.4825" lon="3.73415">
        <ele>219.13</ele>
        <time>2022-01-24T13:28:20.000Z</time>
      </trkpt>
      <trkpt lat="43.4824" lon="3.73436">
        <ele>219.69</ele>
        <time>2022-01-24T13:28:37.000Z</time>
      </trkpt>
      <trkpt lat="43.48234" lon="3.73459">
        <ele>219.46</ele>
        <time>2022-01-24T13:28:53.000Z</time>
      </trkpt>
      <trkpt lat="43.48233" lon="3.73485">
        <ele>218.99</ele>
        <time>2022-01-24T13:29:09.000Z</time>
      </trkpt>
      <trkpt lat="43.48236" lon="3.73509">
        <ele>218.19</ele>
        <time>2022-01-24T13:29:24.000Z</time>
      </trkpt>
      <trkpt lat="43.48241" lon="3.73534">
        <ele>216.13</ele>
        <time>2022-01-24T13:29:40.000Z</time>
      </trkpt>
      <trkpt lat="43.48249" lon="3.73558">
        <ele>218.78</ele>
        <time>2022-01-24T13:29:56.000Z</time>
      </trkpt>
      <trkpt lat="43.48255" lon="3.73583">
        <ele>216.88</ele>
        <time>2022-01-24T13:30:13.000Z</time>
      </trkpt>
      <trkpt lat="43.48262" lon="3.73607">
        <ele>217.69</ele>
        <time>2022-01-24T13:30:30.000Z</time>
      </trkpt>
      <trkpt lat="43.48268" lon="3.73632">
        <ele>218.47</ele>
        <time>2022-01-24T13:30:46.000Z</time>
      </trkpt>
      <trkpt lat="43.48274" lon="3.73656">
        <ele>217.88</ele>
        <time>2022-01-24T13:31:02.000Z</time>
      </trkpt>
      <trkpt lat="43.48275" lon="3.73682">
        <ele>217.68</ele>
        <time>2022-01-24T13:31:19.000Z</time>
      </trkpt>
      <trkpt lat="43.48267" lon="3.73704">
        <ele>216.94</ele>
        <time>2022-01-24T13:31:34.000Z</time>
      </trkpt>
      <trkpt lat="43.48258" lon="3.73726">
        <ele>217.45</ele>
        <time>2022-01-24T13:31:49.000Z</time>
      </trkpt>
      <trkpt lat="43.48249" lon="3.73748">
        <ele>219.39</ele>
        <time>2022-01-24T13:32:04.000Z</time>
      </trkpt>
      <trkpt lat="43.48239" lon="3.7377">
        <ele>219.92</ele>
        <time>2022-01-24T13:32:20.000Z</time>
      </trkpt>
      <trkpt lat="43.4823" lon="3.73793">
        <ele>221.73</ele>
        <time>2022-01-24T13:32:35.000Z</time>
      </trkpt>
      <trkpt lat="43.48221" lon="3.73815">
        <ele>221.42</ele>
        <time>2022-01-24T13:32:51.000Z</time>
      </trkpt>
      <trkpt lat="43.48211" lon="3.73837">
        <ele>221.67</ele>
        <time>2022-01-24T13:33:07.000Z</time>
      </trkpt>
      <trkpt lat="43.48202" lon="3.73859">
        <ele>220.52</ele>
        <time>2022-01-24T13:33:24.000Z</time>
      </trkpt>
      <trkpt lat="43.48195" lon="3.73883">
        <ele>220.19</ele>
        <time>2022-01-24T13:33:40.000Z</time>
      </trkpt>
      <trkpt lat="43.48187" lon="3.73905">
        <ele>221.18</ele>
        <time>2022-01-24T13:33:56.000Z</time>
      </trkpt>
      <trkpt lat="43.4818" lon="3.7393">
        <ele>221.79</ele>
        <time>2022-01-24T13:34:12.000Z</time>
      </trkpt>
      <trkpt lat="43.48177" lon="3.73955">
        <ele>220.9</ele>
        <time>2022-01-24T13:34:28.000Z</time>
      </trkpt>
      <trkpt lat="43.48176" lon="3.7398">
        <ele>220.85</ele>
        <time>2022-01-24T13:34:43.000Z</time>
      </trkpt>
      <trkpt lat="43.48174" lon="3.74005">
        <ele>220.03</ele>
        <time>2022-01-24T13:34:59.000Z</time>
      </trkpt>
      <trkpt lat="43.48173" lon="3.74031">
        <ele>221.83</ele>
        <time>2022-01-24T13:35:37.000Z</time>
      </trkpt>
      <trkpt lat="43.48167" lon="3.74054">
        <ele>221.53</ele>
        <time>2022-01-24T13:37:37.000Z</time>
      </trkpt>
      <trkpt lat="43.48149" lon="3.74061">
        <ele>219.51</ele>
        <time>2022-01-24T13:37:55.000Z</time>
      </trkpt>
      <trkpt lat="43.48133" lon="3.74072">
        <ele>217.03</ele>
        <time>2022-01-24T13:38:12.000Z</time>
      </trkpt>
      <trkpt lat="43.48116" lon="3.74083">
        <ele>216.21</ele>
        <time>2022-01-24T13:38:28.000Z</time>
      </trkpt>
      <trkpt lat="43.48097" lon="3.74085">
        <ele>216.36</ele>
        <time>2022-01-24T13:38:44.000Z</time>
      </trkpt>
      <trkpt lat="43.4808" lon="3.74079">
        <ele>215.23</ele>
        <time>2022-01-24T13:39:00.000Z</time>
      </trkpt>
      <trkpt lat="43.48062" lon="3.74073">
        <ele>214.48</ele>
        <time>2022-01-24T13:39:16.000Z</time>
      </trkpt>
      <trkpt lat="43.48044" lon="3.74069">
        <ele>217.34</ele>
        <time>2022-01-24T13:39:42.000Z</time>
      </trkpt>
      <trkpt lat="43.48025" lon="3.74069">
        <ele>217.02</ele>
        <time>2022-01-24T13:40:00.000Z</time>
      </trkpt>
      <trkpt lat="43.48007" lon="3.74069">
        <ele>217.46</ele>
        <time>2022-01-24T13:40:17.000Z</time>
      </trkpt>
      <trkpt lat="43.47988" lon="3.74071">
        <ele>214.8</ele>
        <time>2022-01-24T13:40:35.000Z</time>
      </trkpt>
      <trkpt lat="43.47969" lon="3.7407">
        <ele>213.74</ele>
        <time>2022-01-24T13:40:54.000Z</time>
      </trkpt>
      <trkpt lat="43.47951" lon="3.74066">
        <ele>213.41</ele>
        <time>2022-01-24T13:41:10.000Z</time>
      </trkpt>
      <trkpt lat="43.47933" lon="3.74062">
        <ele>214.74</ele>
        <time>2022-01-24T13:41:39.000Z</time>
      </trkpt>
      <trkpt lat="43.47917" lon="3.74052">
        <ele>211.81</ele>
        <time>2022-01-24T13:41:57.000Z</time>
      </trkpt>
      <trkpt lat="43.47899" lon="3.74044">
        <ele>213.42</ele>
        <time>2022-01-24T13:42:13.000Z</time>
      </trkpt>
      <trkpt lat="43.47884" lon="3.7403">
        <ele>213.67</ele>
        <time>2022-01-24T13:42:29.000Z</time>
      </trkpt>
      <trkpt lat="43.4787" lon="3.74012">
        <ele>213.91</ele>
        <time>2022-01-24T13:42:44.000Z</time>
      </trkpt>
      <trkpt lat="43.47856" lon="3.73995">
        <ele>213.94</ele>
        <time>2022-01-24T13:43:00.000Z</time>
      </trkpt>
      <trkpt lat="43.47847" lon="3.73973">
        <ele>213.4</ele>
        <time>2022-01-24T13:43:44.000Z</time>
      </trkpt>
      <trkpt lat="43.47844" lon="3.73948">
        <ele>212.7</ele>
        <time>2022-01-24T13:43:59.000Z</time>
      </trkpt>
      <trkpt lat="43.47842" lon="3.73923">
        <ele>213.5</ele>
        <time>2022-01-24T13:44:14.000Z</time>
      </trkpt>
      <trkpt lat="43.47837" lon="3.73898">
        <ele>212.58</ele>
        <time>2022-01-24T13:44:30.000Z</time>
      </trkpt>
      <trkpt lat="43.47829" lon="3.73875">
        <ele>212.12</ele>
        <time>2022-01-24T13:44:45.000Z</time>
      </trkpt>
      <trkpt lat="43.47821" lon="3.73853">
        <ele>212.5</ele>
        <time>2022-01-24T13:45:00.000Z</time>
      </trkpt>
      <trkpt lat="43.47812" lon="3.7383">
        <ele>211.56</ele>
        <time>2022-01-24T13:45:15.000Z</time>
      </trkpt>
      <trkpt lat="43.47801" lon="3.73809">
        <ele>211.81</ele>
        <time>2022-01-24T13:45:30.000Z</time>
      </trkpt>
      <trkpt lat="43.47789" lon="3.7379">
        <ele>213.82</ele>
        <time>2022-01-24T13:45:45.000Z</time>
      </trkpt>
      <trkpt lat="43.47776" lon="3.73773">
        <ele>211.09</ele>
        <time>2022-01-24T13:46:01.000Z</time>
      </trkpt>
      <trkpt lat="43.47761" lon="3.73757">
        <ele>211.37</ele>
        <time>2022-01-24T13:46:17.000Z</time>
      </trkpt>
      <trkpt lat="43.47745" lon="3.73742">
        <ele>210.25</ele>
        <time>2022-01-24T13:46:32.000Z</time>
      </trkpt>
      <trkpt lat="43.47729" lon="3.7373">
        <ele>211.41</ele>
        <time>2022-01-24T13:46:47.000Z</time>
      </trkpt>
      <trkpt lat="43.47712" lon="3.7372">
        <ele>213.68</ele>
        <time>2022-01-24T13:47:03.000Z</time>
      </trkpt>
      <trkpt lat="43.47694" lon="3.73714">
        <ele>212.02</ele>
        <time>2022-01-24T13:47:18.000Z</time>
      </trkpt>
      <trkpt lat="43.47676" lon="3.73707">
        <ele>211.21</ele>
        <time>2022-01-24T13:47:34.000Z</time>
      </trkpt>
      <trkpt lat="43.47658" lon="3.73703">
        <ele>211.46</ele>
        <time>2022-01-24T13:47:49.000Z</time>
      </trkpt>
      <trkpt lat="43.4764" lon="3.73698">
        <ele>211.31</ele>
        <time>2022-01-24T13:48:04.000Z</time>
      </trkpt>
      <trkpt lat="43.47622" lon="3.73693">
        <ele>210.71</ele>
        <time>2022-01-24T13:48:20.000Z</time>
      </trkpt>
      <trkpt lat="43.47603" lon="3.73687">
        <ele>209.86</ele>
        <time>2022-01-24T13:48:36.000Z</time>
      </trkpt>
      <trkpt lat="43.47585" lon="3.73683">
        <ele>209.36</ele>
        <time>2022-01-24T13:48:52.000Z</time>
      </trkpt>
      <trkpt lat="43.47567" lon="3.7368">
        <ele>210.17</ele>
        <time>2022-01-24T13:49:08.000Z</time>
      </trkpt>
      <trkpt lat="43.47548" lon="3.7368">
        <ele>210.29</ele>
        <time>2022-01-24T13:49:24.000Z</time>
      </trkpt>
      <trkpt lat="43.47531" lon="3.73677">
        <ele>209.47</ele>
        <time>2022-01-24T13:49:40.000Z</time>
      </trkpt>
      <trkpt lat="43.47513" lon="3.73673">
        <ele>211.13</ele>
        <time>2022-01-24T13:50:50.000Z</time>
      </trkpt>
      <trkpt lat="43.47494" lon="3.73671">
        <ele>208.51</ele>
        <time>2022-01-24T13:51:10.000Z</time>
      </trkpt>
      <trkpt lat="43.47482" lon="3.73653">
        <ele>205.22</ele>
        <time>2022-01-24T13:54:02.000Z</time>
      </trkpt>
      <trkpt lat="43.47469" lon="3.73635">
        <ele>205.55</ele>
        <time>2022-01-24T13:54:22.000Z</time>
      </trkpt>
      <trkpt lat="43.47458" lon="3.73615">
        <ele>202.79</ele>
        <time>2022-01-24T13:54:44.000Z</time>
      </trkpt>
      <trkpt lat="43.47444" lon="3.73599">
        <ele>201.32</ele>
        <time>2022-01-24T13:55:03.000Z</time>
      </trkpt>
      <trkpt lat="43.4743" lon="3.73582">
        <ele>201.24</ele>
        <time>2022-01-24T13:55:47.000Z</time>
      </trkpt>
      <trkpt lat="43.47415" lon="3.73566">
        <ele>198.95</ele>
        <time>2022-01-24T13:56:06.000Z</time>
      </trkpt>
      <trkpt lat="43.47399" lon="3.73553">
        <ele>198.12</ele>
        <time>2022-01-24T13:56:23.000Z</time>
      </trkpt>
      <trkpt lat="43.47382" lon="3.73544">
        <ele>198.31</ele>
        <time>2022-01-24T13:56:39.000Z</time>
      </trkpt>
      <trkpt lat="43.47365" lon="3.73533">
        <ele>197.06</ele>
        <time>2022-01-24T13:58:19.000Z</time>
      </trkpt>
      <trkpt lat="43.47347" lon="3.73527">
        <ele>195.56</ele>
        <time>2022-01-24T13:58:38.000Z</time>
      </trkpt>
      <trkpt lat="43.4733" lon="3.73519">
        <ele>193.14</ele>
        <time>2022-01-24T13:58:58.000Z</time>
      </trkpt>
      <trkpt lat="43.47315" lon="3.73504">
        <ele>191.19</ele>
        <time>2022-01-24T13:59:18.000Z</time>
      </trkpt>
      <trkpt lat="43.47301" lon="3.73487">
        <ele>189.57</ele>
        <time>2022-01-24T13:59:36.000Z</time>
      </trkpt>
      <trkpt lat="43.47288" lon="3.73471">
        <ele>188.11</ele>
        <time>2022-01-24T13:59:54.000Z</time>
      </trkpt>
      <trkpt lat="43.47273" lon="3.73455">
        <ele>188.09</ele>
        <time>2022-01-24T14:00:12.000Z</time>
      </trkpt>
      <trkpt lat="43.47255" lon="3.73446">
        <ele>186.6</ele>
        <time>2022-01-24T14:00:29.000Z</time>
      </trkpt>
      <trkpt lat="43.47236" lon="3.73443">
        <ele>184.91</ele>
        <time>2022-01-24T14:00:48.000Z</time>
      </trkpt>
      <trkpt lat="43.47218" lon="3.7344">
        <ele>184.6</ele>
        <time>2022-01-24T14:01:05.000Z</time>
      </trkpt>
      <trkpt lat="43.472" lon="3.7344">
        <ele>184.87</ele>
        <time>2022-01-24T14:01:21.000Z</time>
      </trkpt>
      <trkpt lat="43.47181" lon="3.73443">
        <ele>184.45</ele>
        <time>2022-01-24T14:01:39.000Z</time>
      </trkpt>
      <trkpt lat="43.47163" lon="3.73446">
        <ele>182.86</ele>
        <time>2022-01-24T14:01:59.000Z</time>
      </trkpt>
      <trkpt lat="43.47145" lon="3.73448">
        <ele>182.65</ele>
        <time>2022-01-24T14:02:17.000Z</time>
      </trkpt>
      <trkpt lat="43.47126" lon="3.73452">
        <ele>181.33</ele>
        <time>2022-01-24T14:02:36.000Z</time>
      </trkpt>
      <trkpt lat="43.47108" lon="3.73449">
        <ele>179.34</ele>
        <time>2022-01-24T14:02:53.000Z</time>
      </trkpt>
      <trkpt lat="43.47089" lon="3.73447">
        <ele>174.62</ele>
        <time>2022-01-24T14:03:14.000Z</time>
      </trkpt>
      <trkpt lat="43.47071" lon="3.73445">
        <ele>174.14</ele>
        <time>2022-01-24T14:03:31.000Z</time>
      </trkpt>
      <trkpt lat="43.47052" lon="3.73445">
        <ele>171.65</ele>
        <time>2022-01-24T14:03:50.000Z</time>
      </trkpt>
      <trkpt lat="43.47035" lon="3.73439">
        <ele>168.69</ele>
        <time>2022-01-24T14:04:08.000Z</time>
      </trkpt>
      <trkpt lat="43.47017" lon="3.73433">
        <ele>166.43</ele>
        <time>2022-01-24T14:04:27.000Z</time>
      </trkpt>
      <trkpt lat="43.47001" lon="3.73421">
        <ele>164.53</ele>
        <time>2022-01-24T14:04:45.000Z</time>
      </trkpt>
      <trkpt lat="43.46987" lon="3.73403">
        <ele>159.79</ele>
        <time>2022-01-24T14:05:05.000Z</time>
      </trkpt>
      <trkpt lat="43.46977" lon="3.73381">
        <ele>157.95</ele>
        <time>2022-01-24T14:05:23.000Z</time>
      </trkpt>
      <trkpt lat="43.46963" lon="3.73363">
        <ele>156.8</ele>
        <time>2022-01-24T14:05:39.000Z</time>
      </trkpt>
      <trkpt lat="43.46949" lon="3.73348">
        <ele>160.04</ele>
        <time>2022-01-24T14:06:24.000Z</time>
      </trkpt>
      <trkpt lat="43.46935" lon="3.73333">
        <ele>156.29</ele>
        <time>2022-01-24T14:06:41.000Z</time>
      </trkpt>
      <trkpt lat="43.4692" lon="3.73317">
        <ele>153.25</ele>
        <time>2022-01-24T14:07:00.000Z</time>
      </trkpt>
      <trkpt lat="43.46915" lon="3.73294">
        <ele>155.26</ele>
        <time>2022-01-24T14:07:43.000Z</time>
      </trkpt>
      <trkpt lat="43.46915" lon="3.73268">
        <ele>154.83</ele>
        <time>2022-01-24T14:08:01.000Z</time>
      </trkpt>
      <trkpt lat="43.46917" lon="3.73243">
        <ele>154.11</ele>
        <time>2022-01-24T14:08:19.000Z</time>
      </trkpt>
      <trkpt lat="43.4692" lon="3.73217">
        <ele>153.09</ele>
        <time>2022-01-24T14:08:39.000Z</time>
      </trkpt>
      <trkpt lat="43.46916" lon="3.73193">
        <ele>150.47</ele>
        <time>2022-01-24T14:08:59.000Z</time>
      </trkpt>
      <trkpt lat="43.46906" lon="3.7317">
        <ele>148.68</ele>
        <time>2022-01-24T14:09:17.000Z</time>
      </trkpt>
      <trkpt lat="43.46894" lon="3.73151">
        <ele>147.51</ele>
        <time>2022-01-24T14:09:33.000Z</time>
      </trkpt>
      <trkpt lat="43.46879" lon="3.73135">
        <ele>146.25</ele>
        <time>2022-01-24T14:09:53.000Z</time>
      </trkpt>
      <trkpt lat="43.46872" lon="3.73112">
        <ele>143.68</ele>
        <time>2022-01-24T14:10:14.000Z</time>
      </trkpt>
      <trkpt lat="43.46874" lon="3.73087">
        <ele>142.79</ele>
        <time>2022-01-24T14:10:31.000Z</time>
      </trkpt>
      <trkpt lat="43.46876" lon="3.73061">
        <ele>141.14</ele>
        <time>2022-01-24T14:10:49.000Z</time>
      </trkpt>
      <trkpt lat="43.46878" lon="3.73036">
        <ele>138.9</ele>
        <time>2022-01-24T14:11:07.000Z</time>
      </trkpt>
      <trkpt lat="43.4688" lon="3.7301">
        <ele>140.53</ele>
        <time>2022-01-24T14:11:21.000Z</time>
      </trkpt>
      <trkpt lat="43.46886" lon="3.72986">
        <ele>140.38</ele>
        <time>2022-01-24T14:11:36.000Z</time>
      </trkpt>
      <trkpt lat="43.46892" lon="3.72963">
        <ele>140.56</ele>
        <time>2022-01-24T14:11:52.000Z</time>
      </trkpt>
      <trkpt lat="43.46906" lon="3.72947">
        <ele>140.55</ele>
        <time>2022-01-24T14:12:13.000Z</time>
      </trkpt>
      <trkpt lat="43.46924" lon="3.72942">
        <ele>139.18</ele>
        <time>2022-01-24T14:12:30.000Z</time>
      </trkpt>
      <trkpt lat="43.46943" lon="3.72936">
        <ele>140.53</ele>
        <time>2022-01-24T14:12:48.000Z</time>
      </trkpt>
      <trkpt lat="43.46961" lon="3.72932">
        <ele>140.98</ele>
        <time>2022-01-24T14:13:06.000Z</time>
      </trkpt>
      <trkpt lat="43.4698" lon="3.72928">
        <ele>140.08</ele>
        <time>2022-01-24T14:13:32.000Z</time>
      </trkpt>
      <trkpt lat="43.46999" lon="3.72924">
        <ele>139.82</ele>
        <time>2022-01-24T14:13:48.000Z</time>
      </trkpt>
      <trkpt lat="43.47017" lon="3.72921">
        <ele>140.08</ele>
        <time>2022-01-24T14:14:05.000Z</time>
      </trkpt>
      <trkpt lat="43.47035" lon="3.72917">
        <ele>140.69</ele>
        <time>2022-01-24T14:14:20.000Z</time>
      </trkpt>
      <trkpt lat="43.4705" lon="3.729">
        <ele>139.03</ele>
        <time>2022-01-24T14:14:37.000Z</time>
      </trkpt>
      <trkpt lat="43.4706" lon="3.72879">
        <ele>139.55</ele>
        <time>2022-01-24T14:14:53.000Z</time>
      </trkpt>
      <trkpt lat="43.4707" lon="3.72858">
        <ele>140.21</ele>
        <time>2022-01-24T14:15:10.000Z</time>
      </trkpt>
      <trkpt lat="43.47083" lon="3.7284">
        <ele>139.56</ele>
        <time>2022-01-24T14:16:15.000Z</time>
      </trkpt>
      <trkpt lat="43.47101" lon="3.72842">
        <ele>140.18</ele>
        <time>2022-01-24T14:19:03.000Z</time>
      </trkpt>
      <trkpt lat="43.47116" lon="3.72859">
        <ele>140.01</ele>
        <time>2022-01-24T14:19:22.000Z</time>
      </trkpt>
      <trkpt lat="43.47111" lon="3.72834">
        <ele>134.95</ele>
        <time>2022-01-24T14:21:10.000Z</time>
      </trkpt>
      <trkpt lat="43.47109" lon="3.72809">
        <ele>135.21</ele>
        <time>2022-01-24T14:22:09.000Z</time>
      </trkpt>
      <trkpt lat="43.47123" lon="3.72793">
        <ele>132.58</ele>
        <time>2022-01-24T14:22:38.000Z</time>
      </trkpt>
      <trkpt lat="43.47139" lon="3.7278">
        <ele>127.55</ele>
        <time>2022-01-24T14:23:08.000Z</time>
      </trkpt>
      <trkpt lat="43.47154" lon="3.72766">
        <ele>126.56</ele>
        <time>2022-01-24T14:23:40.000Z</time>
      </trkpt>
      <trkpt lat="43.47167" lon="3.72749">
        <ele>122.44</ele>
        <time>2022-01-24T14:24:05.000Z</time>
      </trkpt>
      <trkpt lat="43.47175" lon="3.72726">
        <ele>120.77</ele>
        <time>2022-01-24T14:24:29.000Z</time>
      </trkpt>
      <trkpt lat="43.47179" lon="3.72701">
        <ele>117</ele>
        <time>2022-01-24T14:24:53.000Z</time>
      </trkpt>
      <trkpt lat="43.47191" lon="3.72682">
        <ele>109.86</ele>
        <time>2022-01-24T14:25:27.000Z</time>
      </trkpt>
      <trkpt lat="43.47209" lon="3.7268">
        <ele>108.54</ele>
        <time>2022-01-24T14:25:46.000Z</time>
      </trkpt>
      <trkpt lat="43.47227" lon="3.72675">
        <ele>111.4</ele>
        <time>2022-01-24T14:26:09.000Z</time>
      </trkpt>
      <trkpt lat="43.47245" lon="3.7267">
        <ele>115.44</ele>
        <time>2022-01-24T14:26:34.000Z</time>
      </trkpt>
      <trkpt lat="43.47263" lon="3.72678">
        <ele>119.5</ele>
        <time>2022-01-24T14:27:01.000Z</time>
      </trkpt>
      <trkpt lat="43.47277" lon="3.72694">
        <ele>124.7</ele>
        <time>2022-01-24T14:27:29.000Z</time>
      </trkpt>
      <trkpt lat="43.47293" lon="3.72684">
        <ele>131.09</ele>
        <time>2022-01-24T14:27:59.000Z</time>
      </trkpt>
      <trkpt lat="43.47311" lon="3.72691">
        <ele>135.06</ele>
        <time>2022-01-24T14:28:34.000Z</time>
      </trkpt>
      <trkpt lat="43.47329" lon="3.72693">
        <ele>141.4</ele>
        <time>2022-01-24T14:29:10.000Z</time>
      </trkpt>
      <trkpt lat="43.47347" lon="3.72698">
        <ele>148.83</ele>
        <time>2022-01-24T14:32:50.000Z</time>
      </trkpt>
      <trkpt lat="43.47361" lon="3.72715">
        <ele>151.4</ele>
        <time>2022-01-24T14:33:10.000Z</time>
      </trkpt>
      <trkpt lat="43.4737" lon="3.72738">
        <ele>151.31</ele>
        <time>2022-01-24T14:33:26.000Z</time>
      </trkpt>
      <trkpt lat="43.47382" lon="3.72758">
        <ele>155.64</ele>
        <time>2022-01-24T14:33:45.000Z</time>
      </trkpt>
      <trkpt lat="43.47396" lon="3.72775">
        <ele>160.72</ele>
        <time>2022-01-24T14:34:05.000Z</time>
      </trkpt>
      <trkpt lat="43.47413" lon="3.72786">
        <ele>165.05</ele>
        <time>2022-01-24T14:34:27.000Z</time>
      </trkpt>
      <trkpt lat="43.4743" lon="3.72796">
        <ele>168.95</ele>
        <time>2022-01-24T14:34:52.000Z</time>
      </trkpt>
      <trkpt lat="43.47447" lon="3.72805">
        <ele>175.27</ele>
        <time>2022-01-24T14:35:23.000Z</time>
      </trkpt>
      <trkpt lat="43.47464" lon="3.72816">
        <ele>179.54</ele>
        <time>2022-01-24T14:36:01.000Z</time>
      </trkpt>
      <trkpt lat="43.47481" lon="3.72821">
        <ele>181.27</ele>
        <time>2022-01-24T14:48:24.000Z</time>
      </trkpt>
      <trkpt lat="43.47493" lon="3.72841">
        <ele>182.99</ele>
        <time>2022-01-24T14:50:24.000Z</time>
      </trkpt>
      <trkpt lat="43.47511" lon="3.72836">
        <ele>187.58</ele>
        <time>2022-01-24T14:50:58.000Z</time>
      </trkpt>
      <trkpt lat="43.47529" lon="3.72831">
        <ele>190.45</ele>
        <time>2022-01-24T14:51:22.000Z</time>
      </trkpt>
      <trkpt lat="43.47546" lon="3.72842">
        <ele>190.14</ele>
        <time>2022-01-24T14:51:40.000Z</time>
      </trkpt>
      <trkpt lat="43.4756" lon="3.7286">
        <ele>189.94</ele>
        <time>2022-01-24T14:51:56.000Z</time>
      </trkpt>
      <trkpt lat="43.47573" lon="3.72878">
        <ele>192.17</ele>
        <time>2022-01-24T14:52:14.000Z</time>
      </trkpt>
      <trkpt lat="43.47586" lon="3.72897">
        <ele>191.35</ele>
        <time>2022-01-24T14:52:32.000Z</time>
      </trkpt>
      <trkpt lat="43.47598" lon="3.72916">
        <ele>189.71</ele>
        <time>2022-01-24T14:52:48.000Z</time>
      </trkpt>
      <trkpt lat="43.4761" lon="3.72937">
        <ele>192.38</ele>
        <time>2022-01-24T14:53:05.000Z</time>
      </trkpt>
      <trkpt lat="43.47622" lon="3.72956">
        <ele>195.97</ele>
        <time>2022-01-24T14:53:23.000Z</time>
      </trkpt>
      <trkpt lat="43.47635" lon="3.72973">
        <ele>197.81</ele>
        <time>2022-01-24T14:53:41.000Z</time>
      </trkpt>
      <trkpt lat="43.47647" lon="3.72994">
        <ele>198.85</ele>
        <time>2022-01-24T14:53:59.000Z</time>
      </trkpt>
      <trkpt lat="43.47654" lon="3.73017">
        <ele>199.54</ele>
        <time>2022-01-24T14:54:16.000Z</time>
      </trkpt>
      <trkpt lat="43.47666" lon="3.73037">
        <ele>197.61</ele>
        <time>2022-01-24T14:54:32.000Z</time>
      </trkpt>
      <trkpt lat="43.47679" lon="3.73054">
        <ele>199.53</ele>
        <time>2022-01-24T14:54:50.000Z</time>
      </trkpt>
      <trkpt lat="43.4769" lon="3.73074">
        <ele>201.35</ele>
        <time>2022-01-24T14:55:08.000Z</time>
      </trkpt>
      <trkpt lat="43.47703" lon="3.73094">
        <ele>200.6</ele>
        <time>2022-01-24T14:55:25.000Z</time>
      </trkpt>
      <trkpt lat="43.47716" lon="3.73112">
        <ele>201.99</ele>
        <time>2022-01-24T14:55:41.000Z</time>
      </trkpt>
      <trkpt lat="43.47727" lon="3.73133">
        <ele>201.75</ele>
        <time>2022-01-24T14:55:57.000Z</time>
      </trkpt>
      <trkpt lat="43.47738" lon="3.73152">
        <ele>200.17</ele>
        <time>2022-01-24T14:56:12.000Z</time>
      </trkpt>
      <trkpt lat="43.47755" lon="3.73158">
        <ele>202.67</ele>
        <time>2022-01-24T14:56:30.000Z</time>
      </trkpt>
      <trkpt lat="43.47773" lon="3.73167">
        <ele>203.06</ele>
        <time>2022-01-24T14:56:46.000Z</time>
      </trkpt>
      <trkpt lat="43.4779" lon="3.73175">
        <ele>202.8</ele>
        <time>2022-01-24T14:57:02.000Z</time>
      </trkpt>
      <trkpt lat="43.47808" lon="3.73182">
        <ele>202.31</ele>
        <time>2022-01-24T14:57:18.000Z</time>
      </trkpt>
      <trkpt lat="43.47827" lon="3.73184">
        <ele>200.44</ele>
        <time>2022-01-24T14:57:35.000Z</time>
      </trkpt>
      <trkpt lat="43.47846" lon="3.73186">
        <ele>201.61</ele>
        <time>2022-01-24T14:57:53.000Z</time>
      </trkpt>
      <trkpt lat="43.47864" lon="3.73188">
        <ele>203.22</ele>
        <time>2022-01-24T14:58:10.000Z</time>
      </trkpt>
      <trkpt lat="43.47883" lon="3.73195">
        <ele>201.57</ele>
        <time>2022-01-24T14:58:26.000Z</time>
      </trkpt>
      <trkpt lat="43.47901" lon="3.73202">
        <ele>202.1</ele>
        <time>2022-01-24T14:58:43.000Z</time>
      </trkpt>
      <trkpt lat="43.47918" lon="3.73212">
        <ele>203.69</ele>
        <time>2022-01-24T14:59:00.000Z</time>
      </trkpt>
      <trkpt lat="43.47935" lon="3.73223">
        <ele>203.67</ele>
        <time>2022-01-24T14:59:17.000Z</time>
      </trkpt>
      <trkpt lat="43.47952" lon="3.73233">
        <ele>207.84</ele>
        <time>2022-01-24T14:59:35.000Z</time>
      </trkpt>
      <trkpt lat="43.47969" lon="3.73243">
        <ele>209.61</ele>
        <time>2022-01-24T14:59:54.000Z</time>
      </trkpt>
      <trkpt lat="43.47986" lon="3.73252">
        <ele>212.2</ele>
        <time>2022-01-24T15:00:12.000Z</time>
      </trkpt>
      <trkpt lat="43.48001" lon="3.73267">
        <ele>215.34</ele>
        <time>2022-01-24T15:00:31.000Z</time>
      </trkpt>
      <trkpt lat="43.48017" lon="3.73281">
        <ele>215.8</ele>
        <time>2022-01-24T15:00:48.000Z</time>
      </trkpt>
      <trkpt lat="43.48033" lon="3.73292">
        <ele>217.73</ele>
        <time>2022-01-24T15:01:04.000Z</time>
      </trkpt>
      <trkpt lat="43.48041" lon="3.73315">
        <ele>221.04</ele>
        <time>2022-01-24T15:01:23.000Z</time>
      </trkpt>
      <trkpt lat="43.48059" lon="3.73321">
        <ele>216.41</ele>
        <time>2022-01-24T15:01:41.000Z</time>
      </trkpt>
      <trkpt lat="43.48077" lon="3.73323">
        <ele>217.05</ele>
        <time>2022-01-24T15:02:00.000Z</time>
      </trkpt>
      <trkpt lat="43.48092" lon="3.73339">
        <ele>219.71</ele>
        <time>2022-01-24T15:02:16.000Z</time>
      </trkpt>
      <trkpt lat="43.48104" lon="3.73358">
        <ele>219.34</ele>
        <time>2022-01-24T15:02:32.000Z</time>
      </trkpt>
      <trkpt lat="43.48119" lon="3.73374">
        <ele>219.61</ele>
        <time>2022-01-24T15:02:49.000Z</time>
      </trkpt>
      <trkpt lat="43.48137" lon="3.73383">
        <ele>218.87</ele>
        <time>2022-01-24T15:03:06.000Z</time>
      </trkpt>
      <trkpt lat="43.48151" lon="3.73398">
        <ele>218.4</ele>
        <time>2022-01-24T15:03:22.000Z</time>
      </trkpt>
      <trkpt lat="43.48166" lon="3.73414">
        <ele>216.99</ele>
        <time>2022-01-24T15:03:39.000Z</time>
      </trkpt>
      <trkpt lat="43.48183" lon="3.73424">
        <ele>217.35</ele>
        <time>2022-01-24T15:03:55.000Z</time>
      </trkpt>
      <trkpt lat="43.48201" lon="3.73431">
        <ele>215.65</ele>
        <time>2022-01-24T15:04:11.000Z</time>
      </trkpt>
      <trkpt lat="43.48218" lon="3.73442">
        <ele>214.05</ele>
        <time>2022-01-24T15:04:29.000Z</time>
      </trkpt>
      <trkpt lat="43.48236" lon="3.7344">
        <ele>213.2</ele>
        <time>2022-01-24T15:04:52.000Z</time>
      </trkpt>
      <trkpt lat="43.48248" lon="3.7342">
        <ele>215.4</ele>
        <time>2022-01-24T15:05:11.000Z</time>
      </trkpt>
      <trkpt lat="43.48264" lon="3.73408">
        <ele>213.59</ele>
        <time>2022-01-24T15:06:00.000Z</time>
      </trkpt>
      <trkpt lat="43.48282" lon="3.73399">
        <ele>210.19</ele>
        <time>2022-01-24T15:06:15.000Z</time>
      </trkpt>
      <trkpt lat="43.483" lon="3.73397">
        <ele>212.71</ele>
        <time>2022-01-24T15:06:31.000Z</time>
      </trkpt>
      <trkpt lat="43.48318" lon="3.73392">
        <ele>215.16</ele>
        <time>2022-01-24T15:06:47.000Z</time>
      </trkpt>
      <trkpt lat="43.48336" lon="3.73389">
        <ele>215.18</ele>
        <time>2022-01-24T15:07:10.000Z</time>
      </trkpt>
      <trkpt lat="43.48354" lon="3.73382">
        <ele>215.52</ele>
        <time>2022-01-24T15:07:26.000Z</time>
      </trkpt>
      <trkpt lat="43.48371" lon="3.73373">
        <ele>218.73</ele>
        <time>2022-01-24T15:07:43.000Z</time>
      </trkpt>
      <trkpt lat="43.48386" lon="3.73358">
        <ele>218.79</ele>
        <time>2022-01-24T15:07:59.000Z</time>
      </trkpt>
      <trkpt lat="43.48402" lon="3.73346">
        <ele>220.29</ele>
        <time>2022-01-24T15:08:15.000Z</time>
      </trkpt>
      <trkpt lat="43.48416" lon="3.73329">
        <ele>220.96</ele>
        <time>2022-01-24T15:08:35.000Z</time>
      </trkpt>
      <trkpt lat="43.48433" lon="3.73317">
        <ele>219.01</ele>
        <time>2022-01-24T15:08:53.000Z</time>
      </trkpt>
      <trkpt lat="43.48451" lon="3.73314">
        <ele>217.28</ele>
        <time>2022-01-24T15:09:08.000Z</time>
      </trkpt>
      <trkpt lat="43.4847" lon="3.73313">
        <ele>216.98</ele>
        <time>2022-01-24T15:09:25.000Z</time>
      </trkpt>
      <trkpt lat="43.48488" lon="3.73312">
        <ele>215.75</ele>
        <time>2022-01-24T15:09:42.000Z</time>
      </trkpt>
      <trkpt lat="43.48507" lon="3.73305">
        <ele>215.72</ele>
        <time>2022-01-24T15:09:59.000Z</time>
      </trkpt>
      <trkpt lat="43.48524" lon="3.73295">
        <ele>215.14</ele>
        <time>2022-01-24T15:10:15.000Z</time>
      </trkpt>
      <trkpt lat="43.48539" lon="3.7328">
        <ele>213.93</ele>
        <time>2022-01-24T15:10:31.000Z</time>
      </trkpt>
      <trkpt lat="43.48549" lon="3.73259">
        <ele>213.15</ele>
        <time>2022-01-24T15:10:47.000Z</time>
      </trkpt>
      <trkpt lat="43.48552" lon="3.73233">
        <ele>213.54</ele>
        <time>2022-01-24T15:11:03.000Z</time>
      </trkpt>
      <trkpt lat="43.48547" lon="3.73208">
        <ele>214.38</ele>
        <time>2022-01-24T15:11:19.000Z</time>
      </trkpt>
      <trkpt lat="43.48542" lon="3.73183">
        <ele>214.09</ele>
        <time>2022-01-24T15:11:35.000Z</time>
      </trkpt>
      <trkpt lat="43.48546" lon="3.73158">
        <ele>211.69</ele>
        <time>2022-01-24T15:11:54.000Z</time>
      </trkpt>
      <trkpt lat="43.48562" lon="3.73145">
        <ele>209.96</ele>
        <time>2022-01-24T15:12:26.000Z</time>
      </trkpt>
      <trkpt lat="43.48579" lon="3.73135">
        <ele>210.54</ele>
        <time>2022-01-24T15:12:50.000Z</time>
      </trkpt>
      <trkpt lat="43.48597" lon="3.73125">
        <ele>209.74</ele>
        <time>2022-01-24T15:13:08.000Z</time>
      </trkpt>
      <trkpt lat="43.48615" lon="3.73118">
        <ele>208.91</ele>
        <time>2022-01-24T15:13:29.000Z</time>
      </trkpt>
      <trkpt lat="43.48633" lon="3.73113">
        <ele>207.86</ele>
        <time>2022-01-24T15:14:08.000Z</time>
      </trkpt>
      <trkpt lat="43.4865" lon="3.73104">
        <ele>207.58</ele>
        <time>2022-01-24T15:14:25.000Z</time>
      </trkpt>
      <trkpt lat="43.48668" lon="3.73098">
        <ele>208.25</ele>
        <time>2022-01-24T15:14:42.000Z</time>
      </trkpt>
      <trkpt lat="43.48686" lon="3.73092">
        <ele>207.91</ele>
        <time>2022-01-24T15:14:59.000Z</time>
      </trkpt>
      <trkpt lat="43.48704" lon="3.73089">
        <ele>206.77</ele>
        <time>2022-01-24T15:15:16.000Z</time>
      </trkpt>
      <trkpt lat="43.48723" lon="3.7309">
        <ele>205.25</ele>
        <time>2022-01-24T15:15:38.000Z</time>
      </trkpt>
      <trkpt lat="43.48739" lon="3.73104">
        <ele>205.46</ele>
        <time>2022-01-24T15:15:56.000Z</time>
      </trkpt>
      <trkpt lat="43.48753" lon="3.73123">
        <ele>204.23</ele>
        <time>2022-01-24T15:16:14.000Z</time>
      </trkpt>
      <trkpt lat="43.48767" lon="3.73139">
        <ele>202.48</ele>
        <time>2022-01-24T15:16:30.000Z</time>
      </trkpt>
      <trkpt lat="43.48783" lon="3.73154">
        <ele>203.01</ele>
        <time>2022-01-24T15:16:46.000Z</time>
      </trkpt>
      <trkpt lat="43.48801" lon="3.73162">
        <ele>201</ele>
        <time>2022-01-24T15:17:02.000Z</time>
      </trkpt>
      <trkpt lat="43.48819" lon="3.73162">
        <ele>199.95</ele>
        <time>2022-01-24T15:17:35.000Z</time>
      </trkpt>
      <trkpt lat="43.48837" lon="3.73171">
        <ele>201.79</ele>
        <time>2022-01-24T15:17:51.000Z</time>
      </trkpt>
      <trkpt lat="43.48853" lon="3.73181">
        <ele>200.28</ele>
        <time>2022-01-24T15:18:08.000Z</time>
      </trkpt>
      <trkpt lat="43.48871" lon="3.73185">
        <ele>198.72</ele>
        <time>2022-01-24T15:18:25.000Z</time>
      </trkpt>
      <trkpt lat="43.48889" lon="3.73189">
        <ele>196.01</ele>
        <time>2022-01-24T15:18:41.000Z</time>
      </trkpt>
      <trkpt lat="43.48906" lon="3.73197">
        <ele>194.06</ele>
        <time>2022-01-24T15:18:57.000Z</time>
      </trkpt>
      <trkpt lat="43.48923" lon="3.73208">
        <ele>193.39</ele>
        <time>2022-01-24T15:19:14.000Z</time>
      </trkpt>
      <trkpt lat="43.48939" lon="3.73217">
        <ele>190.72</ele>
        <time>2022-01-24T15:19:33.000Z</time>
      </trkpt>
      <trkpt lat="43.48957" lon="3.73226">
        <ele>189.53</ele>
        <time>2022-01-24T15:19:49.000Z</time>
      </trkpt>
      <trkpt lat="43.48976" lon="3.73225">
        <ele>189.13</ele>
        <time>2022-01-24T15:20:06.000Z</time>
      </trkpt>
      <trkpt lat="43.48985" lon="3.73203">
        <ele>190.86</ele>
        <time>2022-01-24T15:20:25.000Z</time>
      </trkpt>
      <trkpt lat="43.48981" lon="3.73178">
        <ele>188.49</ele>
        <time>2022-01-24T15:20:40.000Z</time>
      </trkpt>
      <trkpt lat="43.48982" lon="3.73152">
        <ele>188.1</ele>
        <time>2022-01-24T15:21:02.000Z</time>
      </trkpt>
      <trkpt lat="43.48981" lon="3.73126">
        <ele>187.98</ele>
        <time>2022-01-24T15:21:19.000Z</time>
      </trkpt>
      <trkpt lat="43.48975" lon="3.73103">
        <ele>184.21</ele>
        <time>2022-01-24T15:22:13.000Z</time>
      </trkpt>
      <trkpt lat="43.48961" lon="3.73087">
        <ele>182.3</ele>
        <time>2022-01-24T15:22:31.000Z</time>
      </trkpt>
      <trkpt lat="43.48948" lon="3.73068">
        <ele>180.93</ele>
        <time>2022-01-24T15:22:47.000Z</time>
      </trkpt>
      <trkpt lat="43.48933" lon="3.73054">
        <ele>178.31</ele>
        <time>2022-01-24T15:23:04.000Z</time>
      </trkpt>
      <trkpt lat="43.48916" lon="3.73041">
        <ele>176.12</ele>
        <time>2022-01-24T15:23:26.000Z</time>
      </trkpt>
      <trkpt lat="43.48901" lon="3.73028">
        <ele>174.46</ele>
        <time>2022-01-24T15:23:44.000Z</time>
      </trkpt>
      <trkpt lat="43.48884" lon="3.73019">
        <ele>172.17</ele>
        <time>2022-01-24T15:24:03.000Z</time>
      </trkpt>
      <trkpt lat="43.48865" lon="3.73023">
        <ele>170.48</ele>
        <time>2022-01-24T15:24:21.000Z</time>
      </trkpt>
      <trkpt lat="43.48847" lon="3.73031">
        <ele>171.97</ele>
        <time>2022-01-24T15:24:39.000Z</time>
      </trkpt>
      <trkpt lat="43.4883" lon="3.73039">
        <ele>170.95</ele>
        <time>2022-01-24T15:24:55.000Z</time>
      </trkpt>
      <trkpt lat="43.48816" lon="3.73022">
        <ele>169.06</ele>
        <time>2022-01-24T15:25:15.000Z</time>
      </trkpt>
      <trkpt lat="43.48816" lon="3.72996">
        <ele>168.25</ele>
        <time>2022-01-24T15:25:32.000Z</time>
      </trkpt>
      <trkpt lat="43.48813" lon="3.72971">
        <ele>166.43</ele>
        <time>2022-01-24T15:25:49.000Z</time>
      </trkpt>
      <trkpt lat="43.48808" lon="3.72947">
        <ele>164.99</ele>
        <time>2022-01-24T15:26:07.000Z</time>
      </trkpt>
      <trkpt lat="43.48804" lon="3.72922">
        <ele>163.99</ele>
        <time>2022-01-24T15:26:24.000Z</time>
      </trkpt>
      <trkpt lat="43.48796" lon="3.72899">
        <ele>160.74</ele>
        <time>2022-01-24T15:26:40.000Z</time>
      </trkpt>
      <trkpt lat="43.48782" lon="3.72883">
        <ele>158.56</ele>
        <time>2022-01-24T15:26:59.000Z</time>
      </trkpt>
      <trkpt lat="43.48764" lon="3.72875">
        <ele>156.49</ele>
        <time>2022-01-24T15:27:18.000Z</time>
      </trkpt>
      <trkpt lat="43.48746" lon="3.72872">
        <ele>155.3</ele>
        <time>2022-01-24T15:27:38.000Z</time>
      </trkpt>
      <trkpt lat="43.48736" lon="3.72851">
        <ele>153.9</ele>
        <time>2022-01-24T15:28:00.000Z</time>
      </trkpt>
      <trkpt lat="43.48748" lon="3.72831">
        <ele>157.46</ele>
        <time>2022-01-24T15:28:21.000Z</time>
      </trkpt>
      <trkpt lat="43.48759" lon="3.72811">
        <ele>159.67</ele>
        <time>2022-01-24T15:28:43.000Z</time>
      </trkpt>
      <trkpt lat="43.48766" lon="3.72788">
        <ele>158.14</ele>
        <time>2022-01-24T15:28:59.000Z</time>
      </trkpt>
      <trkpt lat="43.48765" lon="3.72762">
        <ele>156.8</ele>
        <time>2022-01-24T15:29:15.000Z</time>
      </trkpt>
      <trkpt lat="43.48757" lon="3.7274">
        <ele>153.89</ele>
        <time>2022-01-24T15:29:31.000Z</time>
      </trkpt>
      <trkpt lat="43.48744" lon="3.72722">
        <ele>154.23</ele>
        <time>2022-01-24T15:29:48.000Z</time>
      </trkpt>
      <trkpt lat="43.48731" lon="3.72705">
        <ele>155.91</ele>
        <time>2022-01-24T15:30:10.000Z</time>
      </trkpt>
      <trkpt lat="43.48725" lon="3.72681">
        <ele>155.27</ele>
        <time>2022-01-24T15:30:34.000Z</time>
      </trkpt>
      <trkpt lat="43.4874" lon="3.72666">
        <ele>149.99</ele>
        <time>2022-01-24T15:31:08.000Z</time>
      </trkpt>
      <trkpt lat="43.48722" lon="3.72661">
        <ele>153.34</ele>
        <time>2022-01-24T15:31:29.000Z</time>
      </trkpt>
      <trkpt lat="43.48704" lon="3.72655">
        <ele>153.5</ele>
        <time>2022-01-24T15:31:50.000Z</time>
      </trkpt>
      <trkpt lat="43.48686" lon="3.72648">
        <ele>158.9</ele>
        <time>2022-01-24T15:32:08.000Z</time>
      </trkpt>
      <trkpt lat="43.48673" lon="3.72629">
        <ele>155.53</ele>
        <time>2022-01-24T15:32:24.000Z</time>
      </trkpt>
      <trkpt lat="43.48678" lon="3.72604">
        <ele>154.64</ele>
        <time>2022-01-24T15:32:49.000Z</time>
      </trkpt>
    </trkseg>
  </trk>
</gpx>